createdAt,value
2023-03-06T00:00:50.899Z,96035.06
2023-03-06T00:03:17.733Z,96037.94
2023-03-06T00:05:44.528Z,96027.72
2023-03-06T00:08:11.249Z,96037.25
2023-03-06T00:10:38.198Z,96031.53
2023-03-06T00:13:06.967Z,96025.56
2023-03-06T00:15:34.106Z,96035.47
2023-03-06T00:18:04.070Z,96022.69
2023-03-06T00:20:30.581Z,96024.72
2023-03-06T00:22:57.697Z,96027.16
2023-03-06T00:25:24.755Z,96020.78
2023-03-06T00:27:57.431Z,96024.84
2023-03-06T00:30:24.966Z,96019.25
2023-03-06T00:32:54.062Z,96017.75
2023-03-06T00:35:21.111Z,96015.72
2023-03-06T00:37:47.786Z,96009.59
2023-03-06T00:40:19.777Z,96015.47
2023-03-06T00:42:46.909Z,96008.38
2023-03-06T00:45:14.202Z,95998.00
2023-03-06T00:47:41.070Z,95994.88
2023-03-06T00:50:08.724Z,95995.56
2023-03-06T00:52:35.149Z,95989.03
2023-03-06T00:55:01.624Z,95989.72
2023-03-06T00:57:28.227Z,95983.56
2023-03-06T00:59:57.847Z,95980.97
2023-03-06T01:02:24.327Z,95982.75
2023-03-06T01:04:59.764Z,95975.41
2023-03-06T01:07:27.760Z,95976.09
2023-03-06T01:09:54.490Z,95968.16
2023-03-06T01:12:23.410Z,95973.50
2023-03-06T01:14:50.246Z,95955.78
2023-03-06T01:17:17.520Z,95957.00
2023-03-06T01:19:43.952Z,95957.16
2023-03-06T01:22:10.437Z,95958.25
2023-03-06T01:24:36.874Z,95954.69
2023-03-06T01:27:03.444Z,95960.69
2023-03-06T01:29:29.958Z,95962.59
2023-03-06T01:31:56.488Z,95962.88
2023-03-06T01:34:24.940Z,95951.97
2023-03-06T01:36:51.352Z,95943.09
2023-03-06T01:39:17.816Z,95939.72
2023-03-06T01:41:44.273Z,95941.63
2023-03-06T01:44:13.638Z,95946.53
2023-03-06T01:46:41.980Z,95944.91
2023-03-06T01:49:25.656Z,95935.34
2023-03-06T01:51:57.927Z,95931.25
2023-03-06T01:54:28.656Z,95924.97
2023-03-06T01:57:04.087Z,95921.72
2023-03-06T01:59:32.708Z,95914.25
2023-03-06T02:02:01.811Z,95913.28
2023-03-06T02:04:31.440Z,95912.47
2023-03-06T02:07:00.025Z,95899.00
2023-03-06T02:09:30.958Z,95906.78
2023-03-06T02:11:57.779Z,95902.41
2023-03-06T02:14:25.504Z,95902.13
2023-03-06T02:16:52.163Z,95894.00
2023-03-06T02:19:36.752Z,95894.50
2023-03-06T02:22:05.874Z,95891.81
2023-03-06T02:24:42.585Z,95895.88
2023-03-06T02:27:10.500Z,95897.91
2023-03-06T02:29:37.000Z,95886.34
2023-03-06T02:32:04.554Z,95883.88
2023-03-06T02:34:47.485Z,95886.06
2023-03-06T02:37:13.989Z,95886.91
2023-03-06T02:39:45.017Z,95884.84
2023-03-06T02:42:18.077Z,95878.69
2023-03-06T02:44:44.652Z,95876.25
2023-03-06T02:47:11.155Z,95873.66
2023-03-06T02:49:37.538Z,95870.13
2023-03-06T02:52:04.246Z,95868.34
2023-03-06T02:54:30.681Z,95859.66
2023-03-06T02:56:57.125Z,95862.66
2023-03-06T02:59:23.699Z,95856.53
2023-03-06T03:01:50.257Z,95859.13
2023-03-06T03:04:16.771Z,95864.53
2023-03-06T03:06:46.137Z,95852.81
2023-03-06T03:09:12.604Z,95858.00
2023-03-06T03:11:39.209Z,95842.91
2023-03-06T03:14:07.644Z,95852.56
2023-03-06T03:16:34.092Z,95838.97
2023-03-06T03:19:01.170Z,95838.00
2023-03-06T03:21:27.693Z,95834.31
2023-03-06T03:23:54.208Z,95839.88
2023-03-06T03:26:22.160Z,95839.63
2023-03-06T03:28:48.833Z,95838.66
2023-03-06T03:31:15.308Z,95834.88
2023-03-06T03:33:42.233Z,95832.16
2023-03-06T03:36:09.856Z,95831.19
2023-03-06T03:38:37.204Z,95832.69
2023-03-06T03:41:04.448Z,95822.63
2023-03-06T03:43:31.376Z,95813.63
2023-03-06T03:45:57.787Z,95818.53
2023-03-06T03:48:24.187Z,95818.91
2023-03-06T03:50:50.782Z,95809.81
2023-03-06T03:53:17.328Z,95812.25
2023-03-06T03:55:43.791Z,95817.16
2023-03-06T03:58:10.292Z,95809.28
2023-03-06T04:00:36.678Z,95817.44
2023-03-06T04:03:03.266Z,95814.59
2023-03-06T04:05:29.802Z,95808.34
2023-03-06T04:07:56.426Z,95808.75
2023-03-06T04:10:24.005Z,95811.34
2023-03-06T04:12:50.433Z,95812.03
2023-03-06T04:15:17.050Z,95798.00
2023-03-06T04:17:43.462Z,95788.59
2023-03-06T04:20:12.312Z,95794.59
2023-03-06T04:22:38.870Z,95800.59
2023-03-06T04:25:05.737Z,95798.44
2023-03-06T04:27:32.219Z,95798.69
2023-03-06T04:29:58.710Z,95793.13
2023-03-06T04:32:25.324Z,95790.81
2023-03-06T04:34:54.310Z,95795.72
2023-03-06T04:37:22.730Z,95793.25
2023-03-06T04:39:50.023Z,95794.06
2023-03-06T04:42:16.506Z,95785.09
2023-03-06T04:44:43.376Z,95785.78
2023-03-06T04:47:10.094Z,95787.56
2023-03-06T04:49:46.667Z,95773.94
2023-03-06T04:52:13.177Z,95776.41
2023-03-06T04:54:43.112Z,95778.28
2023-03-06T04:57:10.414Z,95770.13
2023-03-06T04:59:39.103Z,95762.63
2023-03-06T05:02:06.704Z,95756.25
2023-03-06T05:04:33.230Z,95748.63
2023-03-06T05:06:59.638Z,95764.81
2023-03-06T05:09:27.286Z,95762.09
2023-03-06T05:11:53.726Z,95761.28
2023-03-06T05:14:22.278Z,95758.94
2023-03-06T05:16:48.787Z,95761.28
2023-03-06T05:19:15.356Z,95766.06
2023-03-06T05:21:41.785Z,95757.06
2023-03-06T05:24:09.361Z,95753.25
2023-03-06T05:26:35.792Z,95748.59
2023-03-06T05:29:02.280Z,95753.91
2023-03-06T05:31:28.794Z,95757.28
2023-03-06T05:33:55.318Z,95751.63
2023-03-06T05:36:21.757Z,95743.56
2023-03-06T05:38:48.261Z,95752.13
2023-03-06T05:41:15.288Z,95741.78
2023-03-06T05:43:42.344Z,95746.16
2023-03-06T05:46:11.196Z,95747.94
2023-03-06T05:48:38.012Z,95752.56
2023-03-06T05:51:05.579Z,95751.47
2023-03-06T05:53:33.277Z,95747.66
2023-03-06T05:56:02.649Z,95753.25
2023-03-06T05:58:30.502Z,95746.97
2023-03-06T06:00:57.953Z,95749.69
2023-03-06T06:03:25.189Z,95746.53
2023-03-06T06:05:52.731Z,95746.84
2023-03-06T06:08:21.167Z,95744.22
2023-03-06T06:10:47.687Z,95741.50
2023-03-06T06:13:14.129Z,95737.88
2023-03-06T06:15:40.756Z,95739.38
2023-03-06T06:18:08.012Z,95731.97
2023-03-06T06:20:37.483Z,95725.72
2023-03-06T06:23:04.117Z,95738.94
2023-03-06T06:25:30.614Z,95740.84
2023-03-06T06:27:57.831Z,95724.09
2023-03-06T06:30:24.716Z,95741.41
2023-03-06T06:32:51.137Z,95737.44
2023-03-06T06:35:26.625Z,95739.31
2023-03-06T06:37:53.184Z,95737.22
2023-03-06T06:40:24.275Z,95736.84
2023-03-06T06:42:52.410Z,95735.34
2023-03-06T06:45:18.918Z,95734.66
2023-03-06T06:47:46.198Z,95729.78
2023-03-06T06:50:13.739Z,95731.28
2023-03-06T06:52:40.445Z,95728.94
2023-03-06T06:55:07.445Z,95729.06
2023-03-06T06:57:34.050Z,95718.53
2023-03-06T07:00:00.598Z,95726.78
2023-03-06T07:02:27.239Z,95724.53
2023-03-06T07:05:04.291Z,95726.97
2023-03-06T07:07:35.513Z,95725.75
2023-03-06T07:10:05.547Z,95733.38
2023-03-06T07:12:32.906Z,95728.03
2023-03-06T07:14:59.530Z,95728.44
2023-03-06T07:17:31.481Z,95727.75
2023-03-06T07:19:57.993Z,95735.66
2023-03-06T07:22:24.610Z,95731.63
2023-03-06T07:24:51.114Z,95739.78
2023-03-06T07:27:17.576Z,95741.53
2023-03-06T07:29:44.574Z,95738.16
2023-03-06T07:32:11.910Z,95736.47
2023-03-06T07:34:39.480Z,95740.19
2023-03-06T07:37:05.978Z,95736.09
2023-03-06T07:39:38.449Z,95733.88
2023-03-06T07:42:07.510Z,95738.63
2023-03-06T07:44:38.034Z,95739.94
2023-03-06T07:47:05.251Z,95734.25
2023-03-06T07:49:32.355Z,95734.13
2023-03-06T07:51:59.024Z,95738.63
2023-03-06T07:54:25.453Z,95740.91
2023-03-06T07:56:52.621Z,95740.47
2023-03-06T07:59:19.130Z,95736.59
2023-03-06T08:01:45.557Z,95741.44
2023-03-06T08:04:12.089Z,95741.03
2023-03-06T08:06:38.526Z,95737.75
2023-03-06T08:09:10.045Z,95737.88
2023-03-06T08:11:36.503Z,95738.09
2023-03-06T08:14:03.036Z,95724.56
2023-03-06T08:16:30.592Z,95726.94
2023-03-06T08:18:58.254Z,95733.00
2023-03-06T08:21:26.892Z,95739.16
2023-03-06T08:23:53.468Z,95734.28
2023-03-06T08:26:22.981Z,95735.09
2023-03-06T08:28:51.604Z,95736.56
2023-03-06T08:31:28.999Z,95737.88
2023-03-06T08:33:56.997Z,95732.75
2023-03-06T08:36:24.032Z,95733.69
2023-03-06T08:38:51.775Z,95720.75
2023-03-06T08:41:19.831Z,95719.03
2023-03-06T08:43:47.080Z,95730.28
2023-03-06T08:46:14.161Z,95720.28
2023-03-06T08:48:41.822Z,95727.69
2023-03-06T08:51:09.334Z,95727.66
2023-03-06T08:53:43.026Z,95731.91
2023-03-06T08:56:25.112Z,95733.72
2023-03-06T08:58:52.410Z,95723.88
2023-03-06T09:01:25.346Z,95732.72
2023-03-06T09:03:54.483Z,95730.09
2023-03-06T09:06:22.866Z,95723.13
2023-03-06T09:08:55.109Z,95728.28
2023-03-06T09:11:23.078Z,95730.22
2023-03-06T09:13:49.604Z,95733.69
2023-03-06T09:16:16.354Z,95735.97
2023-03-06T09:18:42.848Z,95730.41
2023-03-06T09:21:10.071Z,95721.34
2023-03-06T09:23:39.445Z,95717.63
2023-03-06T09:26:07.054Z,95729.94
2023-03-06T09:28:36.695Z,95730.66
2023-03-06T09:31:11.503Z,95726.03
2023-03-06T09:33:38.326Z,95731.41
2023-03-06T09:36:06.776Z,95740.31
2023-03-06T09:38:34.249Z,95723.97
2023-03-06T09:41:28.869Z,95734.06
2023-03-06T09:44:04.862Z,95729.31
2023-03-06T09:47:00.925Z,95729.81
2023-03-06T09:50:05.643Z,95734.38
2023-03-06T09:52:48.145Z,95737.31
2023-03-06T09:55:24.235Z,95733.91
2023-03-06T09:58:21.144Z,95727.41
2023-03-06T10:01:00.033Z,95731.44
2023-03-06T10:03:51.142Z,95730.47
2023-03-06T10:06:24.974Z,95727.25
2023-03-06T10:09:17.737Z,95722.03
2023-03-06T10:11:51.482Z,95720.91
2023-03-06T10:14:37.321Z,95718.09
2023-03-06T10:17:05.588Z,95723.31
2023-03-06T10:19:38.082Z,95712.88
2023-03-06T10:22:18.324Z,95711.59
2023-03-06T10:25:13.276Z,95709.63
2023-03-06T10:27:53.821Z,95700.34
2023-03-06T10:30:41.429Z,95700.31
2023-03-06T10:33:13.656Z,95696.22
2023-03-06T10:35:48.559Z,95690.19
2023-03-06T10:38:22.637Z,95692.59
2023-03-06T10:41:00.331Z,95693.75
2023-03-06T10:43:27.422Z,95692.59
2023-03-06T10:45:54.000Z,95691.28
2023-03-06T10:48:24.288Z,95687.50
2023-03-06T10:50:52.869Z,95690.13
2023-03-06T10:53:22.766Z,95696.19
2023-03-06T10:55:58.842Z,95700.22
2023-03-06T10:58:32.482Z,95700.19
2023-03-06T11:01:06.835Z,95703.06
2023-03-06T11:03:36.149Z,95700.78
2023-03-06T11:06:15.372Z,95698.50
2023-03-06T11:08:44.195Z,95692.03
2023-03-06T11:11:36.520Z,95689.97
2023-03-06T11:14:23.113Z,95699.56
2023-03-06T11:16:53.738Z,95690.44
2023-03-06T11:19:29.232Z,95692.00
2023-03-06T11:22:06.109Z,95688.31
2023-03-06T11:24:39.490Z,95686.19
2023-03-06T11:27:16.690Z,95683.84
2023-03-06T11:29:47.881Z,95673.09
2023-03-06T11:32:32.585Z,95672.69
2023-03-06T11:35:20.938Z,95673.50
2023-03-06T11:38:02.921Z,95670.88
2023-03-06T11:40:37.077Z,95660.28
2023-03-06T11:43:36.026Z,95659.59
2023-03-06T11:46:17.668Z,95649.72
2023-03-06T11:49:09.641Z,95650.59
2023-03-06T11:51:45.005Z,95650.44
2023-03-06T11:54:13.471Z,95673.63
2023-03-06T11:56:42.845Z,95682.97
2023-03-06T11:59:42.134Z,95688.72
2023-03-06T12:02:40.626Z,95690.16
2023-03-06T12:05:26.601Z,95688.88
2023-03-06T12:08:22.147Z,95683.34
2023-03-06T12:10:57.516Z,95681.38
2023-03-06T12:16:49.663Z,95671.47
2023-03-06T12:19:33.111Z,95672.13
2023-03-06T12:22:20.829Z,95661.53
2023-03-06T12:24:59.470Z,95662.00
2023-03-06T12:27:36.082Z,95659.00
2023-03-06T12:30:14.994Z,95658.44
2023-03-06T12:32:51.642Z,95654.78
2023-03-06T12:35:44.729Z,95649.41
2023-03-06T12:38:47.160Z,95650.28
2023-03-06T12:41:35.391Z,95649.97
2023-03-06T12:46:49.309Z,95651.13
2023-03-06T12:49:32.335Z,95652.13
2023-03-06T12:52:00.989Z,95656.22
2023-03-06T12:54:30.512Z,95653.13
2023-03-06T12:56:59.302Z,95658.16
2023-03-06T12:59:36.451Z,95646.25
2023-03-06T13:02:47.442Z,95652.28
2023-03-06T13:05:13.910Z,95647.31
2023-03-06T13:07:52.848Z,95645.84
2023-03-06T13:10:39.278Z,95639.34
2023-03-06T13:13:18.901Z,95640.47
2023-03-06T13:15:46.893Z,95636.03
2023-03-06T13:18:24.474Z,95639.03
2023-03-06T13:20:55.278Z,95637.59
2023-03-06T13:23:31.048Z,95629.19
2023-03-06T13:26:02.668Z,95634.53
2023-03-06T13:28:47.604Z,95635.09
2023-03-06T13:31:27.720Z,95636.97
2023-03-06T13:34:06.418Z,95634.50
2023-03-06T13:36:34.644Z,95627.47
2023-03-06T13:39:02.085Z,95625.63
2023-03-06T13:41:31.655Z,95629.00
2023-03-06T13:44:06.024Z,95627.44
2023-03-06T13:46:35.583Z,95627.31
2023-03-06T13:49:24.858Z,95618.00
2023-03-06T13:51:54.387Z,95621.44
2023-03-06T13:54:30.779Z,95618.91
2023-03-06T13:57:29.146Z,95609.22
2023-03-06T14:00:23.806Z,95606.59
2023-03-06T14:03:09.562Z,95607.09
2023-03-06T14:05:45.846Z,95609.94
2023-03-06T14:08:34.157Z,95596.59
2023-03-06T14:11:27.223Z,95603.31
2023-03-06T14:13:56.722Z,95600.28
2023-03-06T14:16:32.705Z,95605.19
2023-03-06T14:19:03.981Z,95602.75
2023-03-06T14:21:39.477Z,95599.13
2023-03-06T14:24:19.357Z,95607.59
2023-03-06T14:26:51.565Z,95605.34
2023-03-06T14:29:28.495Z,95601.16
2023-03-06T14:31:59.649Z,95608.16
2023-03-06T14:34:28.997Z,95599.88
2023-03-06T14:36:59.889Z,95598.69
2023-03-06T14:39:42.032Z,95600.47
2023-03-06T14:42:25.944Z,95597.38
2023-03-06T14:45:03.130Z,95596.94
2023-03-06T14:47:32.337Z,95594.28
2023-03-06T14:50:25.795Z,95595.03
2023-03-06T14:52:57.168Z,95601.06
2023-03-06T14:55:28.233Z,95594.16
2023-03-06T14:58:14.268Z,95603.63
2023-03-06T15:00:46.988Z,95604.63
2023-03-06T15:03:17.984Z,95605.63
2023-03-06T15:05:46.889Z,95623.72
2023-03-06T15:08:19.419Z,95627.13
2023-03-06T15:10:58.821Z,95628.56
2023-03-06T15:13:27.234Z,95637.97
2023-03-06T15:16:13.022Z,95634.53
2023-03-06T15:18:56.383Z,95639.09
2023-03-06T15:21:24.915Z,95637.28
2023-03-06T15:23:54.278Z,95628.31
2023-03-06T15:26:33.668Z,95629.50
2023-03-06T15:29:09.019Z,95634.56
2023-03-06T15:31:46.183Z,95632.88
2023-03-06T15:34:23.471Z,95624.31
2023-03-06T15:36:54.527Z,95628.72
2023-03-06T15:39:41.295Z,95637.50
2023-03-06T15:42:21.341Z,95629.88
2023-03-06T15:44:49.936Z,95630.69
2023-03-06T15:47:17.590Z,95627.09
2023-03-06T15:49:53.079Z,95624.81
2023-03-06T15:52:20.948Z,95632.09
2023-03-06T15:54:47.816Z,95635.63
2023-03-06T15:57:34.573Z,95633.97
2023-03-06T16:00:26.662Z,95634.31
2023-03-06T16:02:54.790Z,95638.38
2023-03-06T16:05:21.870Z,95634.81
2023-03-06T16:07:49.222Z,95637.38
2023-03-06T16:10:18.521Z,95633.78
2023-03-06T16:12:48.666Z,95638.22
2023-03-06T16:15:22.293Z,95636.06
2023-03-06T16:17:49.479Z,95637.97
2023-03-06T16:20:19.950Z,95645.47
2023-03-06T16:22:48.029Z,95652.00
2023-03-06T16:25:28.128Z,95645.13
2023-03-06T16:27:58.677Z,95646.50
2023-03-06T16:30:32.690Z,95653.81
2023-03-06T16:33:00.249Z,95651.06
2023-03-06T16:35:27.225Z,95646.63
2023-03-06T16:37:54.871Z,95652.31
2023-03-06T16:40:32.383Z,95652.44
2023-03-06T16:42:58.817Z,95646.78
2023-03-06T16:45:25.260Z,95649.56
2023-03-06T16:47:51.733Z,95652.31
2023-03-06T16:50:24.268Z,95649.72
2023-03-06T16:52:52.376Z,95648.72
2023-03-06T16:55:19.186Z,95655.50
2023-03-06T16:57:45.853Z,95650.22
2023-03-06T17:00:19.977Z,95651.38
2023-03-06T17:02:55.501Z,95646.16
2023-03-06T17:05:23.904Z,95642.53
2023-03-06T17:07:50.508Z,95647.44
2023-03-06T17:10:19.377Z,95644.69
2023-03-06T17:12:45.904Z,95646.00
2023-03-06T17:15:13.543Z,95645.81
2023-03-06T17:17:40.060Z,95658.41
2023-03-06T17:20:08.354Z,95657.16
2023-03-06T17:22:36.179Z,95648.91
2023-03-06T17:25:17.700Z,95666.84
2023-03-06T17:27:52.350Z,95659.38
2023-03-06T17:30:18.936Z,95667.63
2023-03-06T17:32:46.458Z,95675.91
2023-03-06T17:35:33.902Z,95677.53
2023-03-06T17:38:00.453Z,95673.50
2023-03-06T17:40:27.090Z,95682.41
2023-03-06T17:42:56.790Z,95686.59
2023-03-06T17:45:23.296Z,95682.19
2023-03-06T17:47:53.177Z,95687.81
2023-03-06T17:50:19.654Z,95685.09
2023-03-06T17:52:46.223Z,95686.91
2023-03-06T17:55:18.436Z,95681.75
2023-03-06T17:57:45.069Z,95685.78
2023-03-06T18:00:18.229Z,95683.84
2023-03-06T18:02:45.617Z,95682.19
2023-03-06T18:05:13.323Z,95691.69
2023-03-06T18:07:39.856Z,95684.78
2023-03-06T18:10:06.908Z,95684.66
2023-03-06T18:12:33.385Z,95690.00
2023-03-06T18:14:59.919Z,95682.06
2023-03-06T18:17:26.407Z,95690.78
2023-03-06T18:19:52.926Z,95692.59
2023-03-06T18:22:19.438Z,95699.81
2023-03-06T18:24:45.992Z,95692.72
2023-03-06T18:27:16.634Z,95702.81
2023-03-06T18:29:43.305Z,95701.69
2023-03-06T18:32:10.799Z,95701.34
2023-03-06T18:34:37.553Z,95700.50
2023-03-06T18:37:04.113Z,95698.25
2023-03-06T18:39:30.664Z,95703.28
2023-03-06T18:41:57.182Z,95699.13
2023-03-06T18:44:24.707Z,95694.16
2023-03-06T18:46:51.134Z,95695.34
2023-03-06T18:49:18.002Z,95688.66
2023-03-06T18:51:44.531Z,95698.19
2023-03-06T18:54:11.741Z,95693.63
2023-03-06T18:56:39.820Z,95702.41
2023-03-06T18:59:07.008Z,95701.00
2023-03-06T19:01:33.640Z,95699.50
2023-03-06T19:04:04.240Z,95706.50
2023-03-06T19:06:32.780Z,95701.34
2023-03-06T19:08:59.527Z,95701.75
2023-03-06T19:11:26.817Z,95709.75
2023-03-06T19:13:55.534Z,95698.91
2023-03-06T19:16:25.950Z,95703.19
2023-03-06T19:18:56.065Z,95703.19
2023-03-06T19:21:25.833Z,95700.16
2023-03-06T19:23:52.363Z,95699.63
2023-03-06T19:26:19.024Z,95689.94
2023-03-06T19:28:46.209Z,95694.53
2023-03-06T19:31:19.626Z,95701.13
2023-03-06T19:33:56.618Z,95694.84
2023-03-06T19:36:27.681Z,95696.66
2023-03-06T19:38:56.156Z,95691.47
2023-03-06T19:41:23.342Z,95701.84
2023-03-06T19:43:53.825Z,95695.28
2023-03-06T19:46:23.251Z,95691.59
2023-03-06T19:49:01.282Z,95694.91
2023-03-06T19:51:28.277Z,95696.09
2023-03-06T19:53:57.961Z,95696.25
2023-03-06T19:56:26.822Z,95691.59
2023-03-06T19:58:54.783Z,95693.78
2023-03-06T20:01:24.929Z,95688.31
2023-03-06T20:04:00.387Z,95694.63
2023-03-06T20:06:33.772Z,95694.34
2023-03-06T20:09:05.833Z,95690.19
2023-03-06T20:11:33.492Z,95694.63
2023-03-06T20:14:01.886Z,95695.88
2023-03-06T20:16:28.938Z,95694.88
2023-03-06T20:18:58.623Z,95693.59
2023-03-06T20:21:26.124Z,95689.22
2023-03-06T20:23:58.044Z,95682.72
2023-03-06T20:26:25.451Z,95698.03
2023-03-06T20:28:51.918Z,95694.06
2023-03-06T20:31:21.621Z,95691.97
2023-03-06T20:33:50.467Z,95689.38
2023-03-06T20:36:27.475Z,95686.66
2023-03-06T20:38:53.917Z,95695.31
2023-03-06T20:41:23.707Z,95693.72
2023-03-06T20:43:51.327Z,95690.94
2023-03-06T20:46:19.086Z,95697.59
2023-03-06T20:48:48.545Z,95697.75
2023-03-06T20:51:24.296Z,95694.78
2023-03-06T20:53:53.132Z,95696.72
2023-03-06T20:56:22.082Z,95698.19
2023-03-06T20:58:50.502Z,95697.84
2023-03-06T21:01:23.288Z,95692.28
2023-03-06T21:03:50.742Z,95691.53
2023-03-06T21:06:17.905Z,95697.16
2023-03-06T21:08:44.474Z,95684.78
2023-03-06T21:11:10.966Z,95691.53
2023-03-06T21:13:39.420Z,95683.69
2023-03-06T21:16:07.642Z,95686.78
2023-03-06T21:18:34.193Z,95675.31
2023-03-06T21:21:06.549Z,95672.00
2023-03-06T21:23:33.019Z,95666.81
2023-03-06T21:26:13.061Z,95660.16
2023-03-06T21:28:40.392Z,95664.34
2023-03-06T21:31:11.718Z,95663.09
2023-03-06T21:33:39.212Z,95660.16
2023-03-06T21:36:06.727Z,95665.31
2023-03-06T21:38:33.772Z,95664.34
2023-03-06T21:41:11.882Z,95661.72
2023-03-06T21:43:38.894Z,95652.59
2023-03-06T21:46:07.946Z,95656.13
2023-03-06T21:48:34.864Z,95654.53
2023-03-06T21:51:12.857Z,95655.13
2023-03-06T21:53:42.574Z,95650.75
2023-03-06T21:56:10.621Z,95642.59
2023-03-06T21:58:37.342Z,95640.63
2023-03-06T22:01:12.509Z,95646.88
2023-03-06T22:03:39.370Z,95648.59
2023-03-06T22:06:18.864Z,95641.44
2023-03-06T22:08:45.598Z,95638.97
2023-03-06T22:11:15.226Z,95637.34
2023-03-06T22:13:41.880Z,95633.84
2023-03-06T22:16:09.004Z,95628.84
2023-03-06T22:18:36.907Z,95624.38
2023-03-06T22:21:09.594Z,95625.44
2023-03-06T22:23:36.676Z,95621.16
2023-03-06T22:26:05.120Z,95629.06
2023-03-06T22:28:31.822Z,95618.41
2023-03-06T22:31:25.908Z,95622.69
2023-03-06T22:33:55.794Z,95615.78
2023-03-06T22:36:23.615Z,95619.16
2023-03-06T22:38:54.259Z,95616.03
2023-03-06T22:41:21.719Z,95606.72
2023-03-06T22:43:48.293Z,95606.13
2023-03-06T22:46:16.656Z,95606.13
2023-03-06T22:48:43.952Z,95612.56
2023-03-06T22:51:13.976Z,95607.53
2023-03-06T22:53:41.263Z,95599.03
2023-03-06T22:56:11.002Z,95601.28
2023-03-06T22:58:37.858Z,95605.53
2023-03-06T23:01:12.637Z,95603.97
2023-03-06T23:03:41.104Z,95607.31
2023-03-06T23:06:21.321Z,95608.78
2023-03-06T23:08:57.002Z,95613.09
2023-03-06T23:11:30.740Z,95608.34
2023-03-06T23:13:57.984Z,95612.19
2023-03-06T23:16:25.197Z,95609.06
2023-03-06T23:18:53.026Z,95612.56
2023-03-06T23:21:21.781Z,95609.38
2023-03-06T23:23:50.209Z,95611.69
2023-03-06T23:26:18.048Z,95603.47
2023-03-06T23:28:44.843Z,95599.03
2023-03-06T23:31:17.807Z,95606.94
2023-03-06T23:33:44.310Z,95600.22
2023-03-06T23:36:15.042Z,95609.47
2023-03-06T23:38:42.138Z,95608.66
2023-03-06T23:41:18.031Z,95614.84
2023-03-06T23:43:45.109Z,95607.00
2023-03-06T23:46:14.472Z,95606.13
2023-03-06T23:48:41.936Z,95597.53
2023-03-06T23:51:20.054Z,95597.50
2023-03-06T23:53:47.867Z,95599.84
2023-03-06T23:56:15.344Z,95589.34
2023-03-06T23:58:42.144Z,95589.25
